Time;durP1;ratioP1;P1;durP2;ratioP2;P2;SDS_P1;SDS_P2;PMS_P1;PMS_P2;Temp;Humidity;BMP_temperature;BMP_pressure;BME280_temperature;BME280_humidity;BME280_pressure;Samples;Min_cycle;Max_cycle;Signal;HPM_P1;HPM_P2
2022/04/01 00:00:12;;;;;;;;;;;;;;;21.93;35.28;101059.81;7286652;19;151894;-57
2022/04/01 00:02:39;;;;;;;;;;;;;;;21.90;35.27;101059.53;7280045;19;154489;-58
2022/04/01 00:05:06;;;;;;;;;;;;;;;21.87;35.38;101065.81;7280108;19;152076;-56
2022/04/01 00:07:33;;;;;;;;;;;;;;;21.81;35.22;101072.69;7279820;19;152949;-57
2022/04/01 00:10:00;;;;;;;;;;;;;;;21.78;35.51;101074.16;7279165;19;153575;-57
2022/04/01 00:12:27;;;;;;;;;;;;;;;21.74;35.72;101073.13;7280685;19;151717;-57
2022/04/01 00:14:54;;;;;;;;;;;;;;;21.70;35.99;101075.72;7281249;19;152752;-57
2022/04/01 00:17:21;;;;;;;;;;;;;;;21.66;35.70;101066.25;7278669;19;153265;-57
2022/04/01 00:19:48;;;;;;;;;;;;;;;21.62;35.93;101078.44;7277227;19;152107;-57
2022/04/01 00:22:14;;;;;;;;;;;;;;;21.59;36.01;101076.25;7286675;19;153553;-57
2022/04/01 00:24:41;;;;;;;;;;;;;;;21.58;35.92;101077.38;7277557;19;151883;-57
2022/04/01 00:27:08;;;;;;;;;;;;;;;21.53;36.35;101088.75;7280014;19;152586;-57
2022/04/01 00:29:35;;;;;;;;;;;;;;;21.51;36.32;101076.97;7278979;19;153920;-57
2022/04/01 00:32:02;;;;;;;;;;;;;;;21.50;35.80;101075.31;7280482;19;152035;-57
2022/04/01 00:34:30;;;;;;;;;;;;;;;21.47;35.82;101078.75;7280078;19;154177;-58
2022/04/01 00:36:57;;;;;;;;;;;;;;;21.43;36.17;101077.72;7278964;19;153493;-58
2022/04/01 00:39:25;;;;;;;;;;;;;;;21.41;35.93;101075.19;7277833;19;151856;-58
2022/04/01 00:41:52;;;;;;;;;;;;;;;21.38;36.20;101073.03;7279304;19;154107;-58
2022/04/01 00:44:23;;;;;;;;;;;;;;;21.35;36.58;101072.81;7285829;19;154061;-57
2022/04/01 00:46:51;;;;;;;;;;;;;;;21.36;36.54;101077.25;7276578;19;152485;-58
2022/04/01 00:49:18;;;;;;;;;;;;;;;21.32;35.95;101070.59;7275714;19;153288;-58
2022/04/01 00:51:46;;;;;;;;;;;;;;;21.30;36.30;101073.75;7276974;19;152449;-57
2022/04/01 00:54:13;;;;;;;;;;;;;;;21.24;36.34;101072.16;7278975;19;153428;-58
2022/04/01 00:56:39;;;;;;;;;;;;;;;21.24;36.16;101074.97;7278221;19;154591;-57
2022/04/01 00:59:08;;;;;;;;;;;;;;;21.23;36.29;101070.50;7276812;19;151927;-57
2022/04/01 01:01:36;;;;;;;;;;;;;;;21.20;37.09;101068.31;7279847;19;152799;-58
2022/04/01 01:04:03;;;;;;;;;;;;;;;21.15;37.00;101065.59;7277725;19;152822;-58
2022/04/01 01:06:31;;;;;;;;;;;;;;;21.13;36.88;101068.72;7287074;19;151965;-58
2022/04/01 01:08:58;;;;;;;;;;;;;;;21.13;36.84;101059.44;7275579;19;153891;-58
2022/04/01 01:11:25;;;;;;;;;;;;;;;21.09;36.68;101067.63;7277321;19;152343;-57
2022/04/01 01:13:53;;;;;;;;;;;;;;;21.05;36.82;101055.34;7276727;19;154083;-58
2022/04/01 01:16:22;;;;;;;;;;;;;;;21.03;36.63;101054.81;7274862;19;153341;-58
2022/04/01 01:18:58;;;;;;;;;;;;;;;20.94;36.46;101059.47;7275784;19;151751;-58
2022/04/01 01:21:26;;;;;;;;;;;;;;;20.92;36.77;101044.09;7276466;19;153383;-58
2022/04/01 01:24:00;;;;;;;;;;;;;;;20.93;36.74;101046.59;7275673;19;153947;-57
2022/04/01 01:26:30;;;;;;;;;;;;;;;20.86;36.68;101052.59;7276067;19;151917;-58
2022/04/01 01:28:57;;;;;;;;;;;;;;;20.83;36.69;101047.59;7282367;19;152696;-57
2022/04/01 01:31:25;;;;;;;;;;;;;;;20.78;36.74;101041.25;7275791;19;152426;-58
2022/04/01 01:33:53;;;;;;;;;;;;;;;20.77;36.70;101043.22;7276766;19;153111;-58
2022/04/01 01:36:23;;;;;;;;;;;;;;;20.73;36.74;101036.53;7275799;19;154196;-58
2022/04/01 01:38:54;;;;;;;;;;;;;;;20.68;36.87;101036.63;7276715;19;151983;-58
2022/04/01 01:41:21;;;;;;;;;;;;;;;20.64;37.20;101032.78;7274437;19;152545;-58
2022/04/01 01:43:48;;;;;;;;;;;;;;;20.65;37.29;101037.25;7274803;19;153945;-57
2022/04/01 01:46:15;;;;;;;;;;;;;;;20.58;37.12;101036.81;7277021;19;152126;-58
2022/04/01 01:48:44;;;;;;;;;;;;;;;20.57;37.32;101032.34;7281569;19;152160;-58
2022/04/01 01:56:42;;;;;;;;;;;;;;;20.49;37.04;101021.81;7274853;19;153944;-57
2022/04/01 01:59:12;;;;;;;;;;;;;;;20.45;37.30;101019.91;7274356;19;152293;-57
2022/04/01 02:01:39;;;;;;;;;;;;;;;20.45;37.53;101020.75;7276280;19;156912;-57
2022/04/01 02:04:06;;;;;;;;;;;;;;;20.41;37.31;101023.34;7274913;19;154009;-57
2022/04/01 02:06:33;;;;;;;;;;;;;;;20.40;37.64;101020.81;7276146;19;152119;-57
2022/04/01 02:09:00;;;;;;;;;;;;;;;20.38;37.11;101026.75;7273712;19;154129;-57
2022/04/01 02:11:27;;;;;;;;;;;;;;;20.36;37.53;101034.66;7288182;19;152421;-57
2022/04/01 02:13:54;;;;;;;;;;;;;;;20.38;37.61;101023.13;7280179;19;153544;-57
2022/04/01 02:16:23;;;;;;;;;;;;;;;20.36;37.57;101036.63;7279321;19;154140;-57
2022/04/01 02:18:54;;;;;;;;;;;;;;;20.29;37.38;101036.97;7279366;19;151730;-57
2022/04/01 02:21:21;;;;;;;;;;;;;;;20.24;37.58;101034.25;7280110;19;153955;-57
2022/04/01 02:23:48;;;;;;;;;;;;;;;20.23;37.55;101037.34;7280630;19;153647;-59
2022/04/01 02:26:15;;;;;;;;;;;;;;;20.20;37.75;101038.81;7282150;19;151956;-58
2022/04/01 02:28:42;;;;;;;;;;;;;;;20.17;37.49;101030.19;7280446;19;153591;-58
2022/04/01 02:31:09;;;;;;;;;;;;;;;20.14;38.01;101030.75;7278871;19;152418;-58
2022/04/01 02:33:36;;;;;;;;;;;;;;;20.10;37.75;101038.13;7289849;19;152176;-57
2022/04/01 02:36:10;;;;;;;;;;;;;;;20.11;37.82;101032.22;7280332;19;153524;-57
2022/04/01 02:38:39;;;;;;;;;;;;;;;20.07;37.83;101033.13;7281900;19;151872;-57
2022/04/01 02:41:07;;;;;;;;;;;;;;;20.04;38.10;101039.31;7279082;19;152738;-57
2022/04/01 02:43:34;;;;;;;;;;;;;;;20.01;38.05;101039.94;7280637;19;153172;-56
2022/04/01 02:46:02;;;;;;;;;;;;;;;19.96;38.13;101038.88;7281842;19;151596;-58
2022/04/01 02:48:29;;;;;;;;;;;;;;;19.91;37.84;101030.53;7280736;19;153116;-57
2022/04/01 02:50:56;;;;;;;;;;;;;;;19.91;38.34;101036.16;7280054;19;153704;-58
2022/04/01 02:53:22;;;;;;;;;;;;;;;19.87;38.41;101034.25;7281949;19;151988;-58
2022/04/01 02:55:49;;;;;;;;;;;;;;;19.84;38.54;101037.66;7286836;19;153526;-57
2022/04/01 02:58:16;;;;;;;;;;;;;;;19.81;38.16;101039.09;7279397;19;151925;-57
2022/04/01 03:00:43;;;;;;;;;;;;;;;19.76;38.10;101033.53;7280689;19;152771;-57
2022/04/01 03:03:10;;;;;;;;;;;;;;;19.74;38.14;101037.78;7280943;19;153806;-57
2022/04/01 03:05:38;;;;;;;;;;;;;;;19.70;38.51;101029.16;7281331;19;152023;-57
2022/04/01 03:08:06;;;;;;;;;;;;;;;19.65;38.34;101032.03;7280165;19;152804;-58
2022/04/01 03:10:39;;;;;;;;;;;;;;;19.66;38.39;101042.13;7279938;19;154173;-57
2022/04/01 03:13:09;;;;;;;;;;;;;;;19.64;38.41;101038.75;7279230;19;152348;-57
2022/04/01 03:15:39;;;;;;;;;;;;;;;19.61;38.68;101038.53;7280932;19;152971;-56
2022/04/01 03:18:06;;;;;;;;;;;;;;;19.57;38.67;101041.09;7287899;19;156074;-57
2022/04/01 03:20:35;;;;;;;;;;;;;;;19.56;38.70;101049.81;7279045;19;152637;-57
2022/04/01 03:23:03;;;;;;;;;;;;;;;19.53;38.37;101054.88;7278138;19;154527;-57
2022/04/01 03:25:32;;;;;;;;;;;;;;;19.53;38.77;101059.66;7281049;19;151734;-57
2022/04/01 03:28:00;;;;;;;;;;;;;;;19.49;38.63;101056.59;7280849;19;153026;-58
2022/04/01 03:30:27;;;;;;;;;;;;;;;19.45;38.75;101054.69;7275118;19;153987;-58
2022/04/01 03:32:54;;;;;;;;;;;;;;;19.45;38.61;101063.09;7281330;19;151569;-57
2022/04/01 03:35:21;;;;;;;;;;;;;;;19.42;38.67;101074.88;7280179;19;153198;-57
2022/04/01 03:37:50;;;;;;;;;;;;;;;19.43;38.69;101068.16;7279520;19;153861;-57
2022/04/01 03:40:17;;;;;;;;;;;;;;;19.40;38.85;101057.50;7287984;19;152137;-57
2022/04/01 03:42:45;;;;;;;;;;;;;;;19.39;38.70;101079.13;7277675;19;154461;-56
2022/04/01 03:45:12;;;;;;;;;;;;;;;19.37;39.07;101072.13;7278407;19;152196;-56
2022/04/01 03:47:45;;;;;;;;;;;;;;;19.34;38.80;101072.75;7276917;19;155109;-57
2022/04/01 03:50:12;;;;;;;;;;;;;;;19.30;38.78;101069.69;7277089;19;153334;-57
2022/04/01 03:52:42;;;;;;;;;;;;;;;19.30;38.69;101066.91;7281551;19;151894;-57
2022/04/01 03:55:09;;;;;;;;;;;;;;;19.30;38.79;101068.88;7277081;19;153362;-57
2022/04/01 03:57:37;;;;;;;;;;;;;;;19.26;38.77;101062.19;7279415;19;154055;-56
2022/04/01 04:00:05;;;;;;;;;;;;;;;19.24;38.79;101070.03;7287369;19;152238;-57
2022/04/01 04:02:34;;;;;;;;;;;;;;;19.22;38.91;101067.53;7276342;19;153997;-58
2022/04/01 04:05:02;;;;;;;;;;;;;;;19.26;39.27;101056.59;7280432;19;152125;-57
2022/04/01 04:07:30;;;;;;;;;;;;;;;19.27;38.87;101067.47;7279001;19;152638;-57
2022/04/01 04:09:58;;;;;;;;;;;;;;;19.32;39.35;101072.19;7277161;19;153224;-57
2022/04/01 04:12:30;;;;;;;;;;;;;;;19.36;39.23;101070.47;7278679;19;151942;-57
2022/04/01 04:14:57;;;;;;;;;;;;;;;19.40;38.80;101082.72;7277992;19;153723;-57
2022/04/01 04:17:42;;;;;;;;;;;;;;;19.44;39.05;101084.69;7278484;19;153305;-57
2022/04/01 04:20:09;;;;;;;;;;;;;;;19.52;39.24;101091.63;7279828;19;152463;-58
2022/04/01 04:22:53;;;;;;;;;;;;;;;19.58;39.23;101096.00;7285218;19;154609;-59
2022/04/01 04:25:25;;;;;;;;;;;;;;;19.65;39.69;101096.50;7277568;19;151974;-57
2022/04/01 04:27:56;;;;;;;;;;;;;;;19.71;39.65;101091.66;7279981;19;153627;-57
2022/04/01 04:30:32;;;;;;;;;;;;;;;19.77;39.65;101090.44;7276213;19;153598;-58
2022/04/01 04:33:04;;;;;;;;;;;;;;;19.84;39.14;101096.53;7279671;19;152101;-57
2022/04/01 04:35:35;;;;;;;;;;;;;;;19.91;39.21;101097.00;7279152;19;152733;-57
2022/04/01 04:38:02;;;;;;;;;;;;;;;19.96;39.53;101103.38;7278498;19;155542;-57
2022/04/01 04:40:30;;;;;;;;;;;;;;;20.03;39.60;101102.19;7278200;19;152005;-59
2022/04/01 04:42:57;;;;;;;;;;;;;;;20.09;39.41;101110.22;7279275;19;153252;-57
2022/04/01 04:45:25;;;;;;;;;;;;;;;20.14;39.48;101121.38;7284936;19;154114;-59
2022/04/01 04:47:52;;;;;;;;;;;;;;;20.21;39.39;101119.03;7279852;19;152707;-58
2022/04/01 04:50:21;;;;;;;;;;;;;;;20.27;39.10;101122.59;7275748;19;153540;-57
2022/04/01 04:52:49;;;;;;;;;;;;;;;20.34;38.92;101123.09;7275812;19;151775;-57
2022/04/01 04:55:20;;;;;;;;;;;;;;;20.39;38.75;101123.84;7278792;19;155045;-58
2022/04/01 04:57:48;;;;;;;;;;;;;;;20.45;38.64;101121.78;7276963;19;153243;-59
2022/04/01 05:00:21;;;;;;;;;;;;;;;20.49;38.56;101120.03;7276466;19;152288;-57
2022/04/01 05:03:07;;;;;;;;;;;;;;;20.55;38.68;101129.22;7278116;19;152980;-57
2022/04/01 05:05:45;;;;;;;;;;;;;;;20.60;38.64;101129.97;7277921;19;154197;-58
2022/04/01 05:08:31;;;;;;;;;;;;;;;20.66;38.39;101134.41;7285998;19;152071;-58
2022/04/01 05:11:16;;;;;;;;;;;;;;;20.71;38.05;101139.94;7270936;19;154925;-58
2022/04/01 05:13:43;;;;;;;;;;;;;;;20.76;38.68;101145.44;7276070;19;152011;-57
2022/04/01 05:16:17;;;;;;;;;;;;;;;20.80;38.41;101146.50;7277372;19;152969;-60
2022/04/01 05:18:54;;;;;;;;;;;;;;;20.84;38.29;101146.75;7273274;19;152990;-58
2022/04/01 05:21:23;;;;;;;;;;;;;;;20.88;37.96;101173.06;7276429;19;152295;-57
2022/04/01 05:24:01;;;;;;;;;;;;;;;20.91;38.37;101158.41;7278722;19;152915;-58
2022/04/01 05:26:40;;;;;;;;;;;;;;;20.97;37.78;101170.41;7277144;19;154024;-58
2022/04/01 05:29:09;;;;;;;;;;;;;;;21.02;38.15;101173.13;7278247;19;152605;-58
2022/04/01 05:31:42;;;;;;;;;;;;;;;21.04;38.15;101171.66;7284114;19;153516;-58
2022/04/01 05:34:16;;;;;;;;;;;;;;;21.07;37.76;101182.31;7276447;19;152371;-58
2022/04/01 05:36:43;;;;;;;;;;;;;;;21.12;38.01;101179.38;7277287;19;153766;-58
2022/04/01 05:39:14;;;;;;;;;;;;;;;21.15;38.14;101173.22;7275088;19;153955;-58
2022/04/01 05:41:41;;;;;;;;;;;;;;;21.19;38.13;101176.22;7277325;19;152040;-57
2022/04/01 05:44:09;;;;;;;;;;;;;;;21.21;38.04;101174.78;7276250;19;153421;-57
2022/04/01 05:46:37;;;;;;;;;;;;;;;21.27;38.17;101189.56;7279208;19;155505;-57
2022/04/01 05:49:05;;;;;;;;;;;;;;;21.31;37.88;101196.25;7281812;19;152745;-57
2022/04/01 05:51:33;;;;;;;;;;;;;;;21.34;37.85;101190.03;7280004;19;152779;-57
2022/04/01 05:54:01;;;;;;;;;;;;;;;21.38;38.00;101196.69;7290078;19;151787;-57
2022/04/01 05:56:31;;;;;;;;;;;;;;;21.42;38.25;101197.75;7281521;19;152667;-56
2022/04/01 05:58:58;;;;;;;;;;;;;;;21.45;37.91;101208.38;7280134;19;153203;-56
2022/04/01 06:01:28;;;;;;;;;;;;;;;21.48;37.84;101212.56;7283939;19;152221;-57
2022/04/01 06:04:06;;;;;;;;;;;;;;;21.52;37.60;101211.63;7282499;19;152904;-57
2022/04/01 06:06:44;;;;;;;;;;;;;;;21.55;38.00;101227.88;7282623;19;153606;-57
2022/04/01 06:09:14;;;;;;;;;;;;;;;21.58;37.45;101216.00;7281927;19;151868;-58
2022/04/01 06:11:43;;;;;;;;;;;;;;;21.61;37.76;101215.41;7283787;19;154392;-57
2022/04/01 06:14:31;;;;;;;;;;;;;;;21.64;37.54;101228.00;7286763;19;154004;-57
2022/04/01 06:17:07;;;;;;;;;;;;;;;21.68;37.84;101227.06;7281583;19;152860;-59
2022/04/01 06:19:42;;;;;;;;;;;;;;;21.74;37.35;101225.84;7280653;19;154036;-58
2022/04/01 06:22:12;;;;;;;;;;;;;;;21.79;37.34;101232.50;7283083;19;152175;-58
2022/04/01 06:24:44;;;;;;;;;;;;;;;21.81;36.84;101233.84;7283027;19;153684;-58
2022/04/01 06:27:11;;;;;;;;;;;;;;;21.84;36.97;101233.25;7279052;19;152253;-59
2022/04/01 06:29:38;;;;;;;;;;;;;;;21.87;36.92;101235.44;7280592;19;152125;-58
2022/04/01 06:32:05;;;;;;;;;;;;;;;21.91;36.39;101235.63;7282231;19;152466;-58
2022/04/01 06:34:41;;;;;;;;;;;;;;;21.93;36.35;101239.03;7281808;19;154731;-58
2022/04/01 06:37:12;;;;;;;;;;;;;;;21.96;36.62;101255.25;7286702;19;151806;-57
2022/04/01 06:39:55;;;;;;;;;;;;;;;21.92;35.19;101259.81;7281298;19;154162;-58
2022/04/01 06:42:25;;;;;;;;;;;;;;;21.85;33.45;101260.22;7279975;19;152365;-57
2022/04/01 06:44:52;;;;;;;;;;;;;;;21.77;32.05;101257.28;7281109;19;152478;-59
2022/04/01 06:47:19;;;;;;;;;;;;;;;21.69;32.62;101256.88;7281475;19;153442;-57
2022/04/01 06:49:46;;;;;;;;;;;;;;;21.74;32.23;101256.78;7281913;19;152060;-57
2022/04/01 06:52:14;;;;;;;;;;;;;;;21.74;32.29;101251.16;7282237;19;153351;-57
2022/04/01 06:54:41;;;;;;;;;;;;;;;21.74;32.16;101264.38;7278774;19;154721;-58
2022/04/01 06:57:09;;;;;;;;;;;;;;;21.74;32.76;101261.56;7279556;19;152137;-57
2022/04/01 06:59:36;;;;;;;;;;;;;;;21.73;32.68;101266.34;7285435;19;153598;-57
2022/04/01 07:02:03;;;;;;;;;;;;;;;21.73;32.36;101271.13;7282254;19;152536;-58
2022/04/01 07:04:30;;;;;;;;;;;;;;;21.72;32.21;101270.28;7281209;19;153171;-57
2022/04/01 07:06:59;;;;;;;;;;;;;;;21.71;32.62;101273.44;7280386;19;153843;-57
2022/04/01 07:09:26;;;;;;;;;;;;;;;21.71;32.33;101281.88;7280631;19;151933;-56
2022/04/01 07:11:53;;;;;;;;;;;;;;;21.70;32.43;101281.03;7277714;19;154951;-58
2022/04/01 07:14:24;;;;;;;;;;;;;;;21.65;32.34;101281.13;7278064;19;153627;-57
2022/04/01 07:16:51;;;;;;;;;;;;;;;21.65;32.43;101291.53;7279369;19;152040;-57
2022/04/01 07:19:17;;;;;;;;;;;;;;;21.62;32.40;101286.53;7280650;19;154866;-57
2022/04/01 07:21:44;;;;;;;;;;;;;;;21.57;32.49;101292.25;7287509;19;153324;-57
2022/04/01 07:24:11;;;;;;;;;;;;;;;21.58;32.96;101274.19;7281225;19;152890;-58
2022/04/01 07:26:38;;;;;;;;;;;;;;;21.60;32.68;101294.44;7279130;19;153813;-61
2022/04/01 07:29:06;;;;;;;;;;;;;;;21.63;32.75;101291.81;7282558;19;152178;-60
2022/04/01 07:34:48;;;;;;;;;;;;;;;21.55;32.84;101292.53;7278787;19;153568;-57
2022/04/01 07:37:22;;;;;;;;;;;;;;;21.49;32.56;101293.75;7280678;19;152467;-57
2022/04/01 07:40:09;;;;;;;;;;;;;;;21.44;33.08;101310.69;7279882;19;154769;-58
2022/04/01 07:42:36;;;;;;;;;;;;;;;21.41;32.97;101305.69;7277651;19;154305;-57
2022/04/01 07:45:03;;;;;;;;;;;;;;;21.36;33.03;101314.22;7286379;19;152016;-57
2022/04/01 07:47:32;;;;;;;;;;;;;;;21.37;33.20;101307.47;7280030;19;154179;-59
2022/04/01 07:50:00;;;;;;;;;;;;;;;21.38;32.78;101311.09;7279502;19;152375;-59
2022/04/01 07:52:29;;;;;;;;;;;;;;;21.42;32.48;101318.63;7281363;19;152830;-61
2022/04/01 07:54:55;;;;;;;;;;;;;;;21.42;32.68;101304.56;7277357;19;152402;-57
2022/04/01 07:57:22;;;;;;;;;;;;;;;21.44;32.59;101318.34;7280759;19;151931;-57
2022/04/01 07:59:49;;;;;;;;;;;;;;;21.46;32.45;101318.84;7277943;19;151935;-57
2022/04/01 08:02:16;;;;;;;;;;;;;;;21.43;32.66;101311.88;7278471;19;154221;-56
2022/04/01 08:04:43;;;;;;;;;;;;;;;21.47;32.82;101324.16;7285900;19;152538;-58
2022/04/01 08:07:13;;;;;;;;;;;;;;;21.49;32.61;101329.47;7275548;19;153586;-57
2022/04/01 08:09:40;;;;;;;;;;;;;;;21.50;32.49;101331.97;7278082;19;152258;-58
2022/04/01 08:12:08;;;;;;;;;;;;;;;21.53;32.65;101333.38;7275274;19;152240;-57
2022/04/01 08:14:37;;;;;;;;;;;;;;;21.54;32.70;101329.38;7273162;19;152725;-57
2022/04/01 08:17:04;;;;;;;;;;;;;;;21.53;32.70;101331.34;7280364;19;151849;-57
2022/04/01 08:19:31;;;;;;;;;;;;;;;21.55;32.42;101343.16;7279395;19;153103;-58
2022/04/01 08:21:59;;;;;;;;;;;;;;;21.56;32.41;101350.44;7278636;19;155841;-57
2022/04/01 08:24:26;;;;;;;;;;;;;;;21.54;32.14;101355.53;7277249;19;152930;-57
2022/04/01 08:26:53;;;;;;;;;;;;;;;21.54;32.55;101349.91;7284252;19;152804;-58
2022/04/01 08:29:19;;;;;;;;;;;;;;;21.53;32.30;101351.03;7280024;19;151779;-58
2022/04/01 08:31:46;;;;;;;;;;;;;;;21.55;31.97;101354.41;7276096;19;153102;-58
2022/04/01 08:34:13;;;;;;;;;;;;;;;21.52;32.09;101357.84;7277985;19;153792;-57
2022/04/01 08:36:40;;;;;;;;;;;;;;;21.50;31.80;101360.09;7279851;19;152059;-58
2022/04/01 08:39:07;;;;;;;;;;;;;;;21.50;32.24;101359.25;7276975;19;154904;-57
2022/04/01 08:41:33;;;;;;;;;;;;;;;21.46;32.30;101349.75;7277873;19;155888;-57
2022/04/01 08:44:02;;;;;;;;;;;;;;;21.45;31.95;101354.56;7279058;19;151990;-57
2022/04/01 08:46:30;;;;;;;;;;;;;;;21.42;32.17;101369.22;7276848;19;152974;-57
2022/04/01 08:49:01;;;;;;;;;;;;;;;21.39;31.95;101352.13;7285246;19;154309;-57
2022/04/01 08:51:28;;;;;;;;;;;;;;;21.41;32.39;101358.28;7277828;19;153853;-57
2022/04/01 08:53:55;;;;;;;;;;;;;;;21.36;32.21;101364.81;7277961;19;152976;-57
2022/04/01 08:56:22;;;;;;;;;;;;;;;21.36;32.35;101364.81;7275834;19;152122;-56
2022/04/01 08:58:49;;;;;;;;;;;;;;;21.31;32.14;101362.06;7278655;19;154393;-56
2022/04/01 09:01:16;;;;;;;;;;;;;;;21.31;32.44;101376.13;7277569;19;154126;-57
2022/04/01 09:03:44;;;;;;;;;;;;;;;21.30;31.97;101374.47;7276456;19;151717;-57
2022/04/01 09:06:11;;;;;;;;;;;;;;;21.21;32.45;101371.47;7277251;19;154631;-57
2022/04/01 09:08:39;;;;;;;;;;;;;;;21.21;32.42;101374.28;7277448;19;156645;-60
2022/04/01 09:11:18;;;;;;;;;;;;;;;21.21;32.41;101374.28;7281959;19;152025;-59
2022/04/01 09:13:48;;;;;;;;;;;;;;;21.18;32.12;101372.09;7273244;19;153808;-58
2022/04/01 09:16:28;;;;;;;;;;;;;;;21.14;32.00;101384.25;7274828;19;152812;-57
2022/04/01 09:18:56;;;;;;;;;;;;;;;21.11;32.34;101379.22;7276607;19;153956;-57
2022/04/01 09:21:27;;;;;;;;;;;;;;;21.08;32.38;101389.06;7273087;19;153990;-57
2022/04/01 09:23:54;;;;;;;;;;;;;;;21.06;32.05;101394.16;7278050;19;151901;-57
2022/04/01 09:26:22;;;;;;;;;;;;;;;21.05;32.25;101391.63;7277640;19;153550;-57
2022/04/01 09:28:50;;;;;;;;;;;;;;;21.04;32.26;101392.78;7274482;19;154138;-57
2022/04/01 09:31:18;;;;;;;;;;;;;;;21.00;32.03;101388.91;7274494;19;151796;-56
2022/04/01 09:34:09;;;;;;;;;;;;;;;20.97;32.35;101375.47;7283867;19;156387;-57
2022/04/01 09:36:38;;;;;;;;;;;;;;;20.95;32.02;101401.03;7277170;19;151734;-57
2022/04/01 09:39:04;;;;;;;;;;;;;;;20.92;32.45;101404.47;7277129;19;154052;-57
2022/04/01 09:41:34;;;;;;;;;;;;;;;20.86;32.35;101394.41;7276767;19;152379;-57
2022/04/01 09:44:22;;;;;;;;;;;;;;;20.84;32.47;101396.69;7274363;19;152011;-57
2022/04/01 09:46:50;;;;;;;;;;;;;;;20.82;32.34;101393.34;7278045;19;152917;-55
2022/04/01 09:49:30;;;;;;;;;;;;;;;20.76;32.02;101403.78;7274929;19;152404;-57
2022/04/01 09:52:03;;;;;;;;;;;;;;;20.73;32.19;101400.75;7273207;19;152528;-59
2022/04/01 09:54:30;;;;;;;;;;;;;;;20.69;32.54;101419.34;7276310;19;152968;-57
2022/04/01 09:56:58;;;;;;;;;;;;;;;20.71;32.14;101401.06;7283102;19;154728;-57
2022/04/01 09:59:31;;;;;;;;;;;;;;;20.69;32.21;101408.94;7258454;19;155108;-57
2022/04/01 10:01:59;;;;;;;;;;;;;;;20.66;32.41;101391.84;7265532;19;152128;-57
2022/04/01 10:04:26;;;;;;;;;;;;;;;20.63;32.28;101401.69;7275204;19;151948;-57
2022/04/01 10:06:56;;;;;;;;;;;;;;;20.59;32.56;101386.59;7273712;19;155287;-57
2022/04/01 10:09:23;;;;;;;;;;;;;;;20.59;32.32;101396.97;7274348;19;156518;-57
2022/04/01 10:12:12;;;;;;;;;;;;;;;20.55;32.90;101402.34;7273700;19;152120;-57
2022/04/01 10:14:40;;;;;;;;;;;;;;;20.52;32.82;101388.94;7271793;19;153518;-57
2022/04/01 10:17:26;;;;;;;;;;;;;;;20.49;32.58;101397.94;7279927;19;154313;-57
2022/04/01 10:19:54;;;;;;;;;;;;;;;20.49;32.58;101400.72;7274209;19;153337;-57
2022/04/01 10:22:20;;;;;;;;;;;;;;;20.47;32.70;101396.56;7274115;19;156430;-56
2022/04/01 10:24:51;;;;;;;;;;;;;;;20.40;32.51;101396.91;7274816;19;152000;-56
2022/04/01 10:27:30;;;;;;;;;;;;;;;20.36;32.43;101407.88;7273022;19;152157;-56
2022/04/01 10:29:57;;;;;;;;;;;;;;;20.33;32.70;101411.28;7271117;19;152591;-56
2022/04/01 10:32:28;;;;;;;;;;;;;;;20.31;32.68;101404.28;7277085;19;152017;-57
2022/04/01 10:34:59;;;;;;;;;;;;;;;20.26;32.74;101409.94;7278782;19;152766;-57
2022/04/01 10:37:32;;;;;;;;;;;;;;;20.23;32.63;101416.13;7279813;19;152826;-56
2022/04/01 10:40:04;;;;;;;;;;;;;;;20.17;32.92;101418.13;7288218;19;151869;-57
2022/04/01 10:42:32;;;;;;;;;;;;;;;20.13;32.55;101424.63;7280310;19;153407;-57
2022/04/01 10:45:01;;;;;;;;;;;;;;;20.13;32.77;101424.63;7279163;19;152237;-57
2022/04/01 10:53:45;;;;;;;;;;;;;;;20.17;32.36;101409.72;7280712;19;152238;-56
2022/04/01 10:56:21;;;;;;;;;;;;;;;20.17;32.57;101412.53;7280866;19;153124;-57
2022/04/01 10:59:01;;;;;;;;;;;;;;;20.20;32.77;101403.53;7276563;19;153933;-57
2022/04/01 11:01:27;;;;;;;;;;;;;;;20.21;32.81;101391.19;7275546;19;152011;-57
2022/04/01 11:04:13;;;;;;;;;;;;;;;20.12;32.51;101417.38;7282398;19;152903;-58
2022/04/01 11:06:58;;;;;;;;;;;;;;;20.06;32.77;101410.13;7281099;19;152708;-57
2022/04/01 11:09:34;;;;;;;;;;;;;;;20.07;32.57;101414.59;7279701;19;154630;-57
2022/04/01 11:12:21;;;;;;;;;;;;;;;20.08;32.56;101408.69;7276408;19;153405;-57
2022/04/01 11:15:07;;;;;;;;;;;;;;;20.12;32.37;101408.94;7276966;19;152080;-57
2022/04/01 11:17:35;;;;;;;;;;;;;;;20.15;32.63;101408.34;7277664;19;152134;-57
2022/04/01 11:20:02;;;;;;;;;;;;;;;20.16;32.52;101391.25;7278545;19;153662;-57
2022/04/01 11:22:33;;;;;;;;;;;;;;;20.18;32.71;101404.94;7279844;19;152827;-57
2022/04/01 11:25:00;;;;;;;;;;;;;;;20.06;32.84;101398.91;7279449;19;153675;-56
2022/04/01 11:27:27;;;;;;;;;;;;;;;20.06;32.39;101410.13;7284072;19;153476;-57
2022/04/01 11:30:06;;;;;;;;;;;;;;;19.99;32.72;101404.84;7279356;19;152233;-58
2022/04/01 11:32:37;;;;;;;;;;;;;;;19.98;32.54;101408.78;7277327;19;153980;-56
2022/04/01 11:35:06;;;;;;;;;;;;;;;20.05;32.89;101408.44;7278317;19;152207;-57
2022/04/01 11:37:37;;;;;;;;;;;;;;;20.15;32.83;101412.00;7276968;19;153799;-56
2022/04/01 11:40:08;;;;;;;;;;;;;;;20.20;32.83;101406.34;7278631;19;155455;-57
2022/04/01 11:42:46;;;;;;;;;;;;;;;20.23;33.24;101405.75;7276654;19;151964;-57
2022/04/01 11:45:13;;;;;;;;;;;;;;;20.24;33.02;101409.38;7277464;19;152419;-56
2022/04/01 11:47:40;;;;;;;;;;;;;;;20.24;33.09;101410.22;7279154;19;153328;-56
2022/04/01 11:50:11;;;;;;;;;;;;;;;20.39;33.40;101420.50;7284655;19;151887;-57
2022/04/01 11:52:42;;;;;;;;;;;;;;;20.47;32.86;101422.66;7274040;19;153741;-56
2022/04/01 11:55:10;;;;;;;;;;;;;;;20.58;32.67;101421.41;7279342;19;152040;-57
2022/04/01 11:57:38;;;;;;;;;;;;;;;20.62;32.54;101421.66;7276596;19;153506;-57
2022/04/01 12:00:09;;;;;;;;;;;;;;;20.63;32.93;101434.56;7274839;19;153569;-56
2022/04/01 12:02:36;;;;;;;;;;;;;;;20.63;32.65;101459.81;7275876;19;152041;-57
2022/04/01 12:05:02;;;;;;;;;;;;;;;20.66;32.63;101476.09;7273703;19;153313;-57
2022/04/01 12:10:22;;;;;;;;;;;;;;;20.70;33.19;101458.34;7277083;19;152015;-58
2022/04/01 12:12:54;;;;;;;;;;;;;;;20.75;33.01;101452.69;7280911;19;152613;-57
2022/04/01 12:15:35;;;;;;;;;;;;;;;20.89;32.73;101449.16;7278406;19;152024;-57
2022/04/01 12:18:06;;;;;;;;;;;;;;;21.00;32.55;101456.31;7275250;19;153228;-56
2022/04/01 12:20:39;;;;;;;;;;;;;;;21.08;32.61;101450.88;7276724;19;154293;-57
2022/04/01 12:23:12;;;;;;;;;;;;;;;21.16;32.55;101452.22;7277877;19;152059;-56
2022/04/01 12:25:42;;;;;;;;;;;;;;;21.22;32.44;101448.19;7276005;19;153314;-57
2022/04/01 12:28:10;;;;;;;;;;;;;;;21.29;32.15;101452.34;7277086;19;153367;-57
2022/04/01 12:30:42;;;;;;;;;;;;;;;21.34;32.14;101451.44;7277756;19;152562;-57
2022/04/01 12:33:10;;;;;;;;;;;;;;;21.41;32.34;101439.81;7282840;19;153250;-57
2022/04/01 12:35:47;;;;;;;;;;;;;;;21.39;32.36;101431.69;7271588;19;152257;-57
2022/04/01 12:38:15;;;;;;;;;;;;;;;21.47;32.28;101442.25;7275587;19;153023;-57
2022/04/01 12:40:45;;;;;;;;;;;;;;;21.47;32.29;101431.00;7275932;19;153986;-58
2022/04/01 12:43:31;;;;;;;;;;;;;;;21.52;32.09;101419.69;7275551;19;152102;-57
2022/04/01 12:46:03;;;;;;;;;;;;;;;21.59;32.27;101434.19;7276556;19;154304;-57
2022/04/01 12:48:31;;;;;;;;;;;;;;;21.63;32.07;101409.94;7274684;19;153681;-58
2022/04/01 12:51:03;;;;;;;;;;;;;;;21.72;32.20;101419.34;7277262;19;152899;-58
2022/04/01 12:53:30;;;;;;;;;;;;;;;21.80;32.38;101419.81;7276216;19;152919;-58
2022/04/01 12:56:17;;;;;;;;;;;;;;;21.88;32.32;101425.59;7280322;19;154343;-57
2022/04/01 12:58:56;;;;;;;;;;;;;;;21.89;32.79;101446.97;7280169;19;153704;-57